createdAt,value
2019-03-15T00:02:03.075Z,99253.89
2019-03-15T00:04:33.373Z,99253.87
2019-03-15T00:07:03.310Z,99254.65
2019-03-15T00:09:33.239Z,99258.52
2019-03-15T00:12:03.896Z,99258.11
2019-03-15T00:14:34.054Z,99269.11
2019-03-15T00:17:03.945Z,99279.45
2019-03-15T00:19:33.837Z,99275.47
2019-03-15T00:22:04.096Z,99272.05
2019-03-15T00:24:34.344Z,99281.92
2019-03-15T00:27:04.761Z,99280.62
2019-03-15T00:29:35.046Z,99284.05
2019-03-15T00:32:05.925Z,99292.41
2019-03-15T00:34:36.008Z,99287.38
2019-03-15T00:37:06.274Z,99287.98
2019-03-15T00:39:36.177Z,99290.01
2019-03-15T00:42:06.232Z,99300.52
2019-03-15T00:44:38.857Z,99303.44
2019-03-15T00:47:08.820Z,99305.65
2019-03-15T00:49:38.687Z,99310.48
2019-03-15T00:52:08.809Z,99315.59
2019-03-15T00:54:38.811Z,99308.05
2019-03-15T00:57:08.760Z,99307.94
2019-03-15T00:59:38.642Z,99309.33
2019-03-15T01:02:08.651Z,99313.48
2019-03-15T01:04:38.621Z,99316.31
2019-03-15T01:07:08.525Z,99320.05
2019-03-15T01:09:38.706Z,99311.73
2019-03-15T01:12:08.614Z,99322.97
2019-03-15T01:14:38.742Z,99314.59
2019-03-15T01:17:08.853Z,99333.18
2019-03-15T01:19:38.767Z,99334.31
2019-03-15T01:22:08.706Z,99330.71
2019-03-15T01:24:38.686Z,99331.22
2019-03-15T01:27:08.595Z,99329.38
2019-03-15T01:29:38.462Z,99336.36
2019-03-15T01:32:08.489Z,99337.52
2019-03-15T01:34:38.609Z,99342.00
2019-03-15T01:37:08.510Z,99338.50
2019-03-15T01:39:38.647Z,99343.15
2019-03-15T01:42:08.644Z,99343.67
2019-03-15T01:44:38.555Z,99347.98
2019-03-15T01:47:08.705Z,99346.08
2019-03-15T01:49:38.664Z,99352.38
2019-03-15T01:52:08.563Z,99340.59
2019-03-15T01:54:38.672Z,99349.48
2019-03-15T01:57:08.538Z,99359.02
2019-03-15T01:59:38.475Z,99365.39
2019-03-15T02:02:08.386Z,99356.72
2019-03-15T02:04:38.311Z,99358.47
2019-03-15T02:07:09.254Z,99365.31
2019-03-15T02:09:39.146Z,99357.30
2019-03-15T02:12:09.038Z,99363.73
2019-03-15T02:14:38.956Z,99360.19
2019-03-15T02:17:08.950Z,99362.98
2019-03-15T02:19:38.831Z,99361.33
2019-03-15T02:22:08.742Z,99354.70
2019-03-15T02:24:38.678Z,99356.70
2019-03-15T02:27:08.817Z,99362.91
2019-03-15T02:29:38.986Z,99365.75
2019-03-15T02:32:09.410Z,99371.11
2019-03-15T02:34:39.326Z,99369.22
2019-03-15T02:37:09.220Z,99370.36
2019-03-15T02:39:39.144Z,99368.34
2019-03-15T02:42:09.596Z,99373.35
2019-03-15T02:44:39.562Z,99376.80
2019-03-15T02:47:09.471Z,99390.00
2019-03-15T02:49:39.363Z,99389.28
2019-03-15T02:52:09.258Z,99391.50
2019-03-15T02:54:39.149Z,99392.43
2019-03-15T02:57:09.088Z,99394.17
2019-03-15T02:59:39.232Z,99406.00
2019-03-15T03:02:09.158Z,99413.91
2019-03-15T03:04:40.904Z,99410.75
2019-03-15T03:07:11.299Z,99402.04
2019-03-15T03:09:41.179Z,99407.03
2019-03-15T03:12:11.064Z,99408.58
2019-03-15T03:14:40.950Z,99410.55
2019-03-15T03:17:10.909Z,99418.23
2019-03-15T03:19:40.793Z,99424.02
2019-03-15T03:22:10.968Z,99420.50
2019-03-15T03:24:40.862Z,99426.13
2019-03-15T03:27:10.850Z,99435.92
2019-03-15T03:29:41.053Z,99429.56
2019-03-15T03:32:13.596Z,99453.09
2019-03-15T03:34:43.035Z,99460.78
2019-03-15T03:37:13.121Z,99453.02
2019-03-15T03:39:43.015Z,99461.52
2019-03-15T03:42:12.915Z,99463.78
2019-03-15T03:44:42.807Z,99462.94
2019-03-15T03:47:12.697Z,99468.45
2019-03-15T03:49:42.595Z,99463.75
2019-03-15T03:52:12.471Z,99467.11
2019-03-15T03:54:42.371Z,99470.13
2019-03-15T03:57:12.353Z,99473.56
2019-03-15T03:59:42.273Z,99474.43
2019-03-15T04:02:12.220Z,99477.65
2019-03-15T04:04:42.141Z,99469.44
2019-03-15T04:07:12.097Z,99473.50
2019-03-15T04:09:41.990Z,99473.95
2019-03-15T04:12:12.175Z,99478.09
2019-03-15T04:14:42.387Z,99484.88
2019-03-15T04:17:12.337Z,99475.02
2019-03-15T04:19:42.403Z,99484.55
2019-03-15T04:22:12.306Z,99491.52
2019-03-15T04:24:42.215Z,99490.22
2019-03-15T04:27:12.197Z,99493.30
2019-03-15T04:29:42.199Z,99500.12
2019-03-15T04:32:12.123Z,99498.42
2019-03-15T04:34:42.053Z,99504.40
2019-03-15T04:37:11.941Z,99502.70
2019-03-15T04:39:41.879Z,99504.86
2019-03-15T04:42:12.076Z,99501.81
2019-03-15T04:44:41.996Z,99502.64
2019-03-15T04:47:11.863Z,99510.39
2019-03-15T04:49:41.865Z,99509.49
2019-03-15T04:52:11.707Z,99521.94
2019-03-15T04:54:41.929Z,99516.81
2019-03-15T04:57:11.838Z,99526.23
2019-03-15T04:59:41.731Z,99532.62
2019-03-15T05:02:11.615Z,99544.17
2019-03-15T05:04:41.549Z,99544.19
2019-03-15T05:07:11.475Z,99547.19
2019-03-15T05:09:41.660Z,99552.73
2019-03-15T05:12:11.645Z,99551.45
2019-03-15T05:14:41.749Z,99552.73
2019-03-15T05:17:11.640Z,99553.55
2019-03-15T05:19:41.532Z,99564.67
2019-03-15T05:22:11.399Z,99569.42
2019-03-15T05:24:41.295Z,99569.83
2019-03-15T05:27:11.223Z,99582.70
2019-03-15T05:29:41.074Z,99580.14
2019-03-15T05:32:11.180Z,99588.25
2019-03-15T05:34:41.360Z,99598.49
2019-03-15T05:37:11.462Z,99591.24
2019-03-15T05:39:41.397Z,99601.43
2019-03-15T05:42:11.445Z,99600.61
2019-03-15T05:44:41.340Z,99603.17
2019-03-15T05:47:11.523Z,99604.06
2019-03-15T05:49:41.414Z,99598.89
2019-03-15T05:52:11.304Z,99605.77
2019-03-15T05:54:41.274Z,99611.75
2019-03-15T05:57:11.181Z,99624.20
2019-03-15T05:59:41.088Z,99623.34
2019-03-15T06:02:10.976Z,99622.88
2019-03-15T06:04:40.882Z,99628.48
2019-03-15T06:07:10.777Z,99622.45
2019-03-15T06:09:40.897Z,99630.58
2019-03-15T06:12:10.776Z,99642.98
2019-03-15T06:14:41.067Z,99649.87
2019-03-15T06:17:10.996Z,99651.16
2019-03-15T06:19:40.910Z,99657.14
2019-03-15T06:22:10.801Z,99662.28
2019-03-15T06:24:40.776Z,99659.73
2019-03-15T06:27:10.713Z,99667.84
2019-03-15T06:29:40.623Z,99667.83
2019-03-15T06:32:10.766Z,99669.98
2019-03-15T06:34:41.249Z,99664.00
2019-03-15T06:37:11.298Z,99670.38
2019-03-15T06:39:41.160Z,99661.34
2019-03-15T06:42:11.312Z,99676.84
2019-03-15T06:44:41.526Z,99675.13
2019-03-15T06:47:11.463Z,99665.73
2019-03-15T06:49:41.454Z,99667.84
2019-03-15T06:52:11.785Z,99674.27
2019-03-15T06:54:41.692Z,99672.98
2019-03-15T06:57:11.608Z,99672.09
2019-03-15T06:59:41.728Z,99661.01
2019-03-15T07:02:11.895Z,99671.14
2019-03-15T07:04:41.789Z,99680.28
2019-03-15T07:07:15.173Z,99679.80
2019-03-15T07:09:45.069Z,99671.55
2019-03-15T07:12:15.514Z,99675.80
2019-03-15T07:14:45.393Z,99681.84
2019-03-15T07:17:15.334Z,99687.45
2019-03-15T07:19:45.250Z,99683.14
2019-03-15T07:22:15.146Z,99675.83
2019-03-15T07:24:45.071Z,99684.75
2019-03-15T07:27:15.007Z,99687.30
2019-03-15T07:29:45.239Z,99679.25
2019-03-15T07:32:15.207Z,99683.42
2019-03-15T07:34:45.155Z,99681.77
2019-03-15T07:37:15.693Z,99683.06
2019-03-15T07:39:45.673Z,99691.31
2019-03-15T07:42:15.571Z,99696.02
2019-03-15T07:44:45.456Z,99697.74
2019-03-15T07:47:15.830Z,99696.84
2019-03-15T07:49:45.987Z,99695.43
2019-03-15T07:52:15.965Z,99695.49
2019-03-15T07:54:46.092Z,99694.54
2019-03-15T07:57:16.006Z,99701.48
2019-03-15T07:59:45.919Z,99686.92
2019-03-15T08:02:16.098Z,99696.77
2019-03-15T08:04:46.015Z,99696.48
2019-03-15T08:07:20.149Z,99690.47
2019-03-15T08:09:50.790Z,99719.62
2019-03-15T08:12:19.703Z,99713.95
2019-03-15T08:14:51.022Z,99710.63
2019-03-15T08:17:21.037Z,99709.09
2019-03-15T08:19:51.223Z,99709.64
2019-03-15T08:22:21.307Z,99719.13
2019-03-15T08:24:51.996Z,99707.48
2019-03-15T08:27:22.200Z,99718.31
2019-03-15T08:29:52.897Z,99715.94
2019-03-15T08:32:23.364Z,99726.26
2019-03-15T08:34:53.672Z,99725.44
2019-03-15T08:37:23.882Z,99729.77
2019-03-15T08:39:53.893Z,99731.63
2019-03-15T08:42:24.109Z,99738.48
2019-03-15T08:44:54.085Z,99736.70
2019-03-15T08:47:24.228Z,99741.18
2019-03-15T08:49:54.120Z,99743.34
2019-03-15T08:52:24.501Z,99744.93
2019-03-15T08:55:04.501Z,99745.44
2019-03-15T08:57:26.251Z,99742.08
2019-03-15T08:59:57.733Z,99740.06
2019-03-15T09:02:27.911Z,99742.42
2019-03-15T09:04:57.798Z,99737.53
2019-03-15T09:07:27.844Z,99735.77
2019-03-15T09:09:58.182Z,99739.30
2019-03-15T09:12:28.161Z,99737.88
2019-03-15T09:14:58.192Z,99744.98
2019-03-15T09:17:28.098Z,99731.20
2019-03-15T09:19:58.320Z,99727.34
2019-03-15T09:22:28.646Z,99709.95
2019-03-15T09:24:58.560Z,99715.31
2019-03-15T09:27:28.554Z,99709.91
2019-03-15T09:29:58.791Z,99719.66
2019-03-15T09:32:29.116Z,99721.62
2019-03-15T09:34:59.037Z,99711.15
2019-03-15T09:37:29.166Z,99709.65
2019-03-15T09:39:59.066Z,99710.33
2019-03-15T09:42:28.947Z,99709.59
2019-03-15T09:44:59.064Z,99710.55
2019-03-15T09:47:28.974Z,99716.71
2019-03-15T09:49:58.902Z,99713.70
2019-03-15T09:52:28.808Z,99707.86
2019-03-15T09:54:58.822Z,99717.99
2019-03-15T09:57:28.992Z,99710.52
2019-03-15T09:59:58.935Z,99711.59
2019-03-15T10:02:30.691Z,99717.44
2019-03-15T10:05:10.722Z,99706.09
2019-03-15T10:07:38.483Z,99711.65
2019-03-15T10:10:13.307Z,99708.23
2019-03-15T10:12:36.774Z,99696.34
2019-03-15T10:15:08.117Z,99697.94
2019-03-15T10:17:38.179Z,99699.94
2019-03-15T10:20:12.236Z,99684.14
2019-03-15T10:22:40.469Z,99685.92
2019-03-15T10:25:10.768Z,99682.59
2019-03-15T10:27:40.659Z,99679.25
2019-03-15T10:30:13.103Z,99683.33
2019-03-15T10:32:43.032Z,99676.80
2019-03-15T10:35:13.142Z,99684.97
2019-03-15T10:37:43.170Z,99680.66
2019-03-15T10:40:15.133Z,99674.48
2019-03-15T10:42:45.065Z,99673.19
2019-03-15T10:45:15.300Z,99674.16
2019-03-15T10:47:45.253Z,99670.03
2019-03-15T10:50:15.298Z,99661.22
2019-03-15T10:52:45.966Z,99661.18
2019-03-15T10:55:16.275Z,99656.13
2019-03-15T10:57:46.404Z,99650.95
2019-03-15T11:00:16.603Z,99653.33
2019-03-15T11:02:46.510Z,99650.17
2019-03-15T11:05:16.823Z,99658.88
2019-03-15T11:07:47.121Z,99651.16
2019-03-15T11:10:17.292Z,99644.55
2019-03-15T11:12:47.516Z,99647.48
2019-03-15T11:15:18.239Z,99645.61
2019-03-15T11:17:48.613Z,99628.46
2019-03-15T11:20:18.916Z,99621.83
2019-03-15T11:22:48.829Z,99593.23
2019-03-15T11:25:18.797Z,99609.61
2019-03-15T11:27:49.093Z,99607.36
2019-03-15T11:30:19.027Z,99592.25
2019-03-15T11:32:48.962Z,99593.00
2019-03-15T11:35:21.697Z,99594.38
2019-03-15T11:37:51.832Z,99588.80
2019-03-15T11:40:21.859Z,99575.62
2019-03-15T11:42:51.825Z,99577.31
2019-03-15T11:45:22.306Z,99571.34
2019-03-15T11:48:03.188Z,99575.85
2019-03-15T11:50:24.223Z,99581.89
2019-03-15T11:52:54.850Z,99580.11
2019-03-15T11:55:26.514Z,99580.77
2019-03-15T11:57:57.300Z,99569.17
2019-03-15T12:00:27.761Z,99572.40
2019-03-15T12:02:57.891Z,99570.59
2019-03-15T12:05:28.302Z,99567.30
2019-03-15T12:07:58.665Z,99565.67
2019-03-15T12:10:28.846Z,99547.49
2019-03-15T12:12:59.134Z,99536.39
2019-03-15T12:15:36.290Z,99524.08
2019-03-15T12:18:08.326Z,99526.13
2019-03-15T12:20:38.618Z,99521.12
2019-03-15T12:23:08.792Z,99516.38
2019-03-15T12:25:38.723Z,99513.36
2019-03-15T12:28:08.987Z,99515.69
2019-03-15T12:30:39.269Z,99510.01
2019-03-15T12:33:09.236Z,99495.16
2019-03-15T12:35:39.189Z,99491.67
2019-03-15T12:38:09.993Z,99480.50
2019-03-15T12:40:40.323Z,99480.39
2019-03-15T12:43:10.327Z,99473.02
2019-03-15T12:45:40.470Z,99464.72
2019-03-15T12:48:12.468Z,99461.81
2019-03-15T12:50:42.766Z,99458.95
2019-03-15T12:53:13.440Z,99463.86
2019-03-15T12:55:47.153Z,99459.34
2019-03-15T12:58:22.333Z,99448.03
2019-03-15T13:01:07.749Z,99441.25
2019-03-15T13:03:38.583Z,99451.31
2019-03-15T13:06:11.878Z,99443.29
2019-03-15T13:08:42.197Z,99432.95
2019-03-15T13:11:12.578Z,99418.06
2019-03-15T13:13:42.734Z,99412.64
2019-03-15T13:16:12.773Z,99410.81
2019-03-15T13:18:45.728Z,99406.84
2019-03-15T13:21:15.719Z,99391.03
2019-03-15T13:23:45.907Z,99390.25
2019-03-15T13:26:16.114Z,99378.47
2019-03-15T13:28:46.073Z,99387.86
2019-03-15T13:31:25.341Z,99363.87
2019-03-15T13:33:56.000Z,99366.42
2019-03-15T13:36:26.184Z,99364.23
2019-03-15T13:38:56.119Z,99358.67
2019-03-15T13:41:26.285Z,99360.96
2019-03-15T13:43:56.557Z,99358.42
2019-03-15T13:46:26.487Z,99343.83
2019-03-15T13:48:56.858Z,99327.98
2019-03-15T13:51:27.253Z,99318.97
2019-03-15T13:53:59.835Z,99309.51
2019-03-15T13:56:29.295Z,99307.14
2019-03-15T13:58:59.229Z,99306.03
2019-03-15T14:01:29.233Z,99306.86
2019-03-15T14:03:59.598Z,99298.72
2019-03-15T14:06:29.890Z,99299.80
2019-03-15T14:08:59.907Z,99300.22
2019-03-15T14:11:36.238Z,99297.23
2019-03-15T14:14:06.491Z,99286.40
2019-03-15T14:16:36.420Z,99277.05
2019-03-15T14:19:06.338Z,99287.80
2019-03-15T14:21:36.506Z,99287.87
2019-03-15T14:24:06.558Z,99278.16
2019-03-15T14:26:36.478Z,99271.98
2019-03-15T14:29:06.590Z,99273.97
2019-03-15T14:31:36.505Z,99268.25
2019-03-15T14:34:06.391Z,99254.88
2019-03-15T14:36:36.277Z,99252.95
2019-03-15T14:39:07.626Z,99243.88
2019-03-15T14:41:37.786Z,99241.66
2019-03-15T14:44:08.007Z,99236.12
2019-03-15T14:46:43.809Z,99242.24
2019-03-15T14:49:13.761Z,99233.04
2019-03-15T14:51:43.708Z,99224.55
2019-03-15T14:54:13.700Z,99216.13
2019-03-15T14:56:43.615Z,99216.75
2019-03-15T14:59:13.562Z,99222.11
2019-03-15T15:01:43.501Z,99218.51
2019-03-15T15:04:16.206Z,99197.05
2019-03-15T15:06:45.251Z,99201.32
2019-03-15T15:09:15.163Z,99201.28
2019-03-15T15:11:45.238Z,99185.66
2019-03-15T15:14:15.498Z,99190.95
2019-03-15T15:16:45.497Z,99195.97
2019-03-15T15:19:15.777Z,99188.34
2019-03-15T15:21:46.170Z,99183.13
2019-03-15T15:24:16.557Z,99167.91
2019-03-15T15:26:46.679Z,99170.75
2019-03-15T15:29:16.613Z,99153.64
2019-03-15T15:31:46.541Z,99149.27
2019-03-15T15:34:16.875Z,99122.51
2019-03-15T15:36:46.776Z,99132.90
2019-03-15T15:39:17.622Z,99136.02
2019-03-15T15:41:50.085Z,99125.84
2019-03-15T15:44:20.361Z,99125.89
2019-03-15T15:46:50.439Z,99127.38
2019-03-15T15:49:20.327Z,99126.95
2019-03-15T15:51:50.243Z,99126.38
2019-03-15T15:54:20.145Z,99118.50
2019-03-15T15:56:51.113Z,99103.96
2019-03-15T15:59:21.040Z,99107.55
2019-03-15T16:01:50.965Z,99097.84
2019-03-15T16:04:21.077Z,99095.77
2019-03-15T16:06:51.542Z,99078.93
2019-03-15T16:09:21.432Z,99084.77
2019-03-15T16:11:51.448Z,99088.06
2019-03-15T16:14:27.120Z,99078.77
2019-03-15T16:16:57.098Z,99069.23
2019-03-15T16:19:27.010Z,99072.47
2019-03-15T16:21:56.980Z,99077.11
2019-03-15T16:24:27.494Z,99071.11
2019-03-15T16:26:57.532Z,99088.64
2019-03-15T16:29:27.422Z,99082.73
2019-03-15T16:31:57.361Z,99086.89
2019-03-15T16:34:27.357Z,99081.42
2019-03-15T16:36:57.730Z,99088.78
2019-03-15T16:39:27.633Z,99107.09
2019-03-15T16:41:57.578Z,99096.70
2019-03-15T16:44:27.595Z,99091.66
2019-03-15T16:46:57.573Z,99094.26
2019-03-15T16:49:27.589Z,99100.20
2019-03-15T16:51:59.771Z,99097.81
2019-03-15T16:54:29.955Z,99135.56
2019-03-15T16:56:59.973Z,99106.73
2019-03-15T16:59:30.414Z,99108.53
2019-03-15T17:02:00.321Z,99107.43
2019-03-15T17:04:30.279Z,99102.33
2019-03-15T17:07:00.953Z,99100.16
2019-03-15T17:09:31.425Z,99108.77
2019-03-15T17:12:01.547Z,99109.76
2019-03-15T17:14:31.511Z,99099.02
2019-03-15T17:17:01.836Z,99089.39
2019-03-15T17:19:32.354Z,99107.55
2019-03-15T17:22:02.336Z,99119.37
2019-03-15T17:24:32.241Z,99129.41
2019-03-15T17:27:02.514Z,99137.20
2019-03-15T17:29:32.430Z,99130.38
2019-03-15T17:32:02.444Z,99120.39
2019-03-15T17:34:32.879Z,99113.59
2019-03-15T17:37:06.822Z,99119.55
2019-03-15T17:39:36.686Z,99109.73
2019-03-15T17:42:06.873Z,99121.30
2019-03-15T17:44:36.875Z,99122.06
2019-03-15T17:47:09.861Z,99126.88
2019-03-15T17:49:39.985Z,99132.23
2019-03-15T17:52:09.910Z,99131.20
2019-03-15T17:54:40.044Z,99139.98
2019-03-15T17:57:10.317Z,99137.88
2019-03-15T17:59:43.572Z,99137.28
2019-03-15T18:02:13.534Z,99137.41
2019-03-15T18:04:43.526Z,99126.64
2019-03-15T18:07:14.287Z,99133.30
2019-03-15T18:09:44.861Z,99121.47
2019-03-15T18:12:14.992Z,99135.27
2019-03-15T18:14:45.107Z,99139.16
2019-03-15T18:17:15.426Z,99131.80
2019-03-15T18:19:45.452Z,99123.48
2019-03-15T18:22:15.371Z,99136.67
2019-03-15T18:24:45.710Z,99122.59
2019-03-15T18:27:15.638Z,99128.44
2019-03-15T18:29:45.574Z,99122.23
2019-03-15T18:32:15.657Z,99129.95
2019-03-15T18:34:45.714Z,99134.17
2019-03-15T18:37:15.637Z,99130.41
2019-03-15T18:39:45.802Z,99134.81
2019-03-15T18:42:15.795Z,99131.66
2019-03-15T18:44:45.740Z,99142.14
2019-03-15T18:47:15.681Z,99149.63
2019-03-15T18:49:46.237Z,99155.83
2019-03-15T18:52:16.408Z,99159.74
2019-03-15T18:54:46.636Z,99158.14
2019-03-15T18:57:16.576Z,99170.84
2019-03-15T18:59:46.519Z,99167.52
2019-03-15T19:02:16.469Z,99169.44
2019-03-15T19:04:46.542Z,99172.06
2019-03-15T19:07:16.563Z,99157.58
2019-03-15T19:09:46.851Z,99166.80
2019-03-15T19:12:17.026Z,99167.47
2019-03-15T19:14:47.283Z,99176.97
2019-03-15T19:17:17.767Z,99183.54
2019-03-15T19:19:47.889Z,99170.87
2019-03-15T19:22:18.007Z,99174.59
2019-03-15T19:24:47.997Z,99197.05
2019-03-15T19:27:17.943Z,99205.08
2019-03-15T19:29:53.579Z,99194.70
2019-03-15T19:32:19.735Z,99207.11
2019-03-15T19:34:49.899Z,99195.36
2019-03-15T19:37:19.828Z,99220.62
2019-03-15T19:39:49.967Z,99214.23
2019-03-15T19:42:20.107Z,99228.86
2019-03-15T19:44:50.359Z,99237.48
2019-03-15T19:47:20.553Z,99244.25
2019-03-15T19:49:50.576Z,99240.39
2019-03-15T19:52:21.016Z,99256.77
2019-03-15T19:55:00.341Z,99246.05
2019-03-15T19:57:22.715Z,99250.68
2019-03-15T20:00:06.733Z,99250.01
2019-03-15T20:02:24.712Z,99244.93
2019-03-15T20:04:55.176Z,99265.50
2019-03-15T20:07:25.109Z,99253.29
2019-03-15T20:09:55.394Z,99261.48
2019-03-15T20:12:25.361Z,99261.34
2019-03-15T20:14:57.029Z,99267.31
2019-03-15T20:17:26.979Z,99277.13
2019-03-15T20:19:57.212Z,99271.02
2019-03-15T20:22:27.853Z,99281.77
2019-03-15T20:24:57.840Z,99294.23
2019-03-15T20:27:28.014Z,99288.77
2019-03-15T20:30:01.676Z,99296.81
2019-03-15T20:32:33.359Z,99306.56
2019-03-15T20:35:03.946Z,99296.53
2019-03-15T20:37:33.982Z,99321.43
2019-03-15T20:40:04.193Z,99308.92
2019-03-15T20:42:34.089Z,99315.50
2019-03-15T20:45:06.252Z,99312.83
2019-03-15T20:47:38.555Z,99322.13
2019-03-15T20:50:09.850Z,99333.46
2019-03-15T20:52:40.989Z,99337.37
2019-03-15T20:55:11.960Z,99351.98
2019-03-15T20:57:42.511Z,99347.64
2019-03-15T21:00:16.402Z,99360.87
2019-03-15T21:02:46.488Z,99368.59
2019-03-15T21:05:16.560Z,99367.70
2019-03-15T21:07:46.689Z,99376.78
2019-03-15T21:10:16.825Z,99379.79
2019-03-15T21:12:48.439Z,99374.63
2019-03-15T21:15:20.361Z,99396.01
2019-03-15T21:17:50.813Z,99376.16
2019-03-15T21:20:22.875Z,99383.91
2019-03-15T21:22:54.860Z,99384.36
2019-03-15T21:25:26.943Z,99384.73
2019-03-15T21:27:58.344Z,99398.58
2019-03-15T21:30:29.036Z,99393.92
2019-03-15T21:32:59.100Z,99393.48
2019-03-15T21:35:30.604Z,99400.72
2019-03-15T21:38:02.190Z,99409.31
2019-03-15T21:40:33.616Z,99411.84
2019-03-15T21:43:05.197Z,99408.40
2019-03-15T21:45:37.736Z,99414.77
2019-03-15T21:48:09.198Z,99404.23
2019-03-15T21:50:40.403Z,99407.31
2019-03-15T21:53:12.191Z,99413.23
2019-03-15T21:55:43.013Z,99414.03
2019-03-15T21:58:14.063Z,99415.75
2019-03-15T22:00:45.164Z,99426.00
2019-03-15T22:03:15.503Z,99431.56
2019-03-15T22:05:47.021Z,99434.50
2019-03-15T22:08:17.656Z,99442.26
2019-03-15T22:10:48.812Z,99453.89
2019-03-15T22:13:19.712Z,99441.52
2019-03-15T22:16:09.982Z,99460.80
2019-03-15T22:18:40.861Z,99457.78
2019-03-15T22:21:12.567Z,99465.88
2019-03-15T22:23:43.781Z,99471.47
2019-03-15T22:26:16.516Z,99477.84
2019-03-15T22:28:48.675Z,99473.08
2019-03-15T22:31:20.261Z,99488.56
2019-03-15T22:33:50.454Z,99496.27
2019-03-15T22:36:20.401Z,99496.27
2019-03-15T22:38:50.321Z,99507.38
2019-03-15T22:41:20.404Z,99508.27
2019-03-15T22:43:50.579Z,99515.12
2019-03-15T22:46:20.560Z,99513.11
2019-03-15T22:48:50.581Z,99506.94
2019-03-15T22:51:20.878Z,99524.54
2019-03-15T22:53:50.813Z,99540.55
2019-03-15T22:56:20.877Z,99540.64
2019-03-15T22:58:50.913Z,99543.30
2019-03-15T23:01:30.068Z,99540.75
2019-03-15T23:03:52.964Z,99545.47
2019-03-15T23:06:22.948Z,99552.75
2019-03-15T23:08:53.433Z,99568.99
2019-03-15T23:11:24.105Z,99559.59
2019-03-15T23:13:55.023Z,99542.88
2019-03-15T23:16:25.956Z,99558.30
2019-03-15T23:18:56.896Z,99580.10
2019-03-15T23:21:27.838Z,99578.84
2019-03-15T23:23:58.671Z,99575.00
2019-03-15T23:26:29.347Z,99582.70
2019-03-15T23:29:00.597Z,99587.83
2019-03-15T23:31:43.033Z,99595.09
2019-03-15T23:34:04.139Z,99596.34
2019-03-15T23:36:35.235Z,99601.92
2019-03-15T23:39:07.771Z,99610.04
2019-03-15T23:41:38.748Z,99620.30
2019-03-15T23:44:10.615Z,99618.55
2019-03-15T23:46:49.542Z,99636.52
2019-03-15T23:49:19.551Z,99649.39
2019-03-15T23:52:04.937Z,99651.53
2019-03-15T23:54:38.198Z,99645.91
2019-03-15T23:57:10.155Z,99637.39
2019-03-15T23:59:40.200Z,99654.48
